Time;durP1;ratioP1;P1;durP2;ratioP2;P2;SDS_P1;SDS_P2;PMS_P1;PMS_P2;Temp;Humidity;BMP_temperature;BMP_pressure;BME280_temperature;BME280_humidity;BME280_pressure;Samples;Min_cycle;Max_cycle;Signal;HPM_P1;HPM_P2
2021/05/10 03:16:16;;;;;;;6.42;5.92;;;;;;;12.03;60.82;95077.17;831122;71;32207;-76
2021/05/10 03:31:10;;;;;;;6.70;6.10;;;;;;;15.26;53.13;95063.13;828414;71;28907;-77
2021/05/10 03:46:15;;;;;;;6.80;6.20;;;;;;;15.44;50.55;95074.02;833984;71;32527;-75
2021/05/10 04:01:11;;;;;;;7.25;6.47;;;;;;;16.14;48.42;95089.66;819707;71;29340;-76
2021/05/10 04:16:14;;;;;;;7.78;6.40;;;;;;;16.99;46.88;95101.75;827616;71;32552;-75
2021/05/10 04:31:14;;;;;;;9.28;6.55;;;;;;;16.91;46.57;95107.84;834244;71;31806;-79
2021/05/10 04:46:10;;;;;;;6.20;5.65;;;;;;;16.15;46.19;95112.38;829154;71;29236;-78
2021/05/10 05:01:14;;;;;;;9.55;6.30;;;;;;;16.06;46.48;95114.77;828916;71;31728;-79
2021/05/10 05:16:08;;;;;;;6.08;5.60;;;;;;;15.76;47.25;95119.80;834957;71;28668;-79
2021/05/10 05:31:15;;;;;;;5.90;5.47;;;;;;;16.04;46.83;95109.80;834246;71;31667;-77
2021/05/10 05:46:24;;;;;;;5.53;5.12;;;;;;;16.17;46.74;95119.48;828297;71;31422;-76
2021/05/10 06:01:08;;;;;;;4.78;4.35;;;;;;;16.14;46.63;95124.08;828664;71;29818;-78
2021/05/10 06:16:15;;;;;;;7.80;5.33;;;;;;;16.46;46.48;95115.48;827482;71;32226;-76
2021/05/10 06:31:11;;;;;;;6.92;5.22;;;;;;;16.87;45.39;95099.75;834058;71;30301;-77
2021/05/10 06:46:09;;;;;;;5.97;5.45;;;;;;;16.71;46.09;95097.30;828517;71;30302;-77
2021/05/10 07:01:14;;;;;;;6.00;5.47;;;;;;;17.27;45.05;95073.56;827680;71;32722;-78
2021/05/10 07:16:08;;;;;;;6.08;5.58;;;;;;;17.56;44.30;95067.02;834191;71;29840;-76
2021/05/10 07:31:08;;;;;;;5.10;4.70;;;;;;;17.99;43.17;95068.73;828614;71;30723;-78
2021/05/10 07:46:09;;;;;;;4.70;4.30;;;;;;;18.49;41.77;95063.75;828407;71;30201;-78
2021/05/10 08:01:18;;;;;;;5.25;4.75;;;;;;;18.92;41.14;95065.34;828313;71;32724;-78
2021/05/10 08:16:08;;;;;;;8.28;4.60;;;;;;;19.50;40.48;95048.08;829848;70;29734;-79
2021/05/10 08:31:11;;;;;;;4.53;4.20;;;;;;;19.78;39.33;95025.61;835157;71;31695;-79
2021/05/10 08:46:09;;;;;;;4.30;4.00;;;;;;;20.45;37.48;95006.66;828297;71;30801;-79
2021/05/10 09:16:10;;;;;;;4.62;4.33;;;;;;;21.00;37.28;94972.57;829141;71;30325;-80
2021/05/10 09:46:15;;;;;;;4.00;3.70;;;;;;;20.76;37.99;94928.12;828007;71;32746;-80
2021/05/10 10:01:15;;;;;;;4.10;3.80;;;;;;;21.06;37.90;94915.70;827592;71;32668;-77
2021/05/10 10:16:17;;;;;;;4.22;3.80;;;;;;;21.97;36.47;94896.59;833745;71;33301;-74
2021/05/10 10:31:11;;;;;;;3.83;3.52;;;;;;;22.82;36.34;94888.67;828340;71;30153;-75
2021/05/10 10:46:28;;;;;;;4.10;3.80;;;;;;;23.35;34.08;94880.76;834288;71;29776;-76
2021/05/10 11:01:23;;;;;;;4.30;4.00;;;;;;;23.16;34.21;94864.22;827815;71;32652;-78
2021/05/10 11:16:18;;;;;;;3.97;3.70;;;;;;;23.26;34.15;94842.00;834532;71;29690;-78
2021/05/10 11:31:11;;;;;;;4.53;4.03;;;;;;;23.76;33.31;94818.54;834191;71;29807;-76
2021/05/10 11:46:35;;;;;;;4.00;3.60;;;;;;;24.14;33.22;94800.05;827529;71;32756;-77
2021/05/10 12:01:09;;;;;;;4.67;4.10;;;;;;;24.52;33.00;94788.78;834380;71;29773;-76
2021/05/10 12:16:09;;;;;;;4.33;4.00;;;;;;;24.62;31.40;94759.73;828518;71;29699;-75
2021/05/10 12:31:19;;;;;;;4.47;4.10;;;;;;;24.69;31.47;94747.12;827705;71;33115;-76
2021/05/10 12:46:15;;;;;;;3.90;3.30;;;;;;;24.19;28.67;94731.36;827606;71;32703;-75
2021/05/10 13:01:21;;;;;;;3.20;3.00;;;;;;;24.20;28.31;94712.01;826131;71;33310;-76
2021/05/10 13:16:25;;;;;;;3.57;3.37;;;;;;;24.27;27.75;94694.65;833740;71;32749;-76
2021/05/10 13:46:08;;;;;;;3.30;3.10;;;;;;;23.70;29.15;94668.05;828577;71;29697;-79
2021/05/10 14:01:16;;;;;;;3.20;2.97;;;;;;;23.46;29.16;94641.20;800657;74;32937;-78
2021/05/10 14:16:10;;;;;;;4.17;3.20;;;;;;;23.34;29.14;94638.77;834185;71;31427;-77
2021/05/10 14:31:16;;;;;;;3.23;2.93;;;;;;;23.23;29.53;94627.16;834231;71;30271;-78
2021/05/10 14:46:16;;;;;;;3.10;2.90;;;;;;;23.29;28.87;94613.64;827475;71;32680;-77
2021/05/10 15:01:43;;;;;;;2.93;2.73;;;;;;;23.08;29.83;94600.80;828631;71;30838;-78
2021/05/10 15:16:08;;;;;;;3.63;3.00;;;;;;;23.04;30.62;94590.62;834409;71;29731;-78
2021/05/10 15:31:16;;;;;;;3.17;2.97;;;;;;;23.20;32.78;94581.81;835002;71;32614;-80
2021/05/10 15:46:08;;;;;;;3.10;2.90;;;;;;;23.04;32.40;94583.35;828646;71;29749;-78
2021/05/10 16:01:10;;;;;;;3.10;2.90;;;;;;;22.60;32.78;94549.91;836237;71;30511;-83
2021/05/10 16:16:19;;;;;;;3.47;3.10;;;;;;;22.46;31.52;94586.41;828074;71;32789;-78
2021/05/10 16:31:16;;;;;;;3.33;3.13;;;;;;;22.12;33.00;94604.97;816073;70;32907;-81
2021/05/10 16:46:15;;;;;;;4.30;3.90;;;;;;;21.69;34.71;94604.28;815026;71;32895;-81
2021/05/10 17:01:09;;;;;;;3.95;3.65;;;;;;;21.29;36.02;94612.91;832186;71;29822;-75
2021/05/10 17:16:17;;;;;;;3.77;3.50;;;;;;;20.88;37.39;94601.80;828213;71;32567;-77
2021/05/10 17:31:31;;;;;;;4.60;4.30;;;;;;;20.33;39.35;94603.67;833087;70;33180;-76
2021/05/10 17:46:16;;;;;;;4.87;4.47;;;;;;;19.79;40.50;94610.42;827387;71;32722;-78
2021/05/10 18:03:09;;;;;;;4.80;4.37;;;;;;;19.30;41.10;94616.77;827268;71;32691;-77
2021/05/10 18:31:15;;;;;;;5.30;4.80;;;;;;;18.31;42.17;94640.66;827431;71;32692;-76
2021/05/10 19:01:16;;;;;;;5.37;4.87;;;;;;;17.36;44.49;94657.87;827609;71;32725;-80
2021/05/10 19:16:39;;;;;;;5.25;4.85;;;;;;;17.04;45.16;94660.72;822304;71;32734;-76
2021/05/10 19:31:16;;;;;;;5.37;4.87;;;;;;;16.61;46.94;94670.48;835080;71;32677;-78
2021/05/10 19:46:22;;;;;;;8.28;5.03;;;;;;;16.23;48.56;94680.57;834832;71;32743;-78
2021/05/10 20:01:10;;;;;;;5.53;5.03;;;;;;;15.90;50.16;94685.14;835720;71;30643;-79
2021/05/10 20:16:17;;;;;;;6.40;5.58;;;;;;;15.58;51.56;94688.52;834360;71;33197;-79
2021/05/10 20:31:14;;;;;;;5.90;5.40;;;;;;;15.33;53.15;94690.12;828386;71;32667;-78
2021/05/10 20:46:09;;;;;;;6.17;5.60;;;;;;;15.13;53.76;94702.09;828915;71;30286;-77
2021/05/10 21:01:52;;;;;;;5.42;5.00;;;;;;;15.02;53.88;94707.44;827595;71;32724;-79
2021/05/10 21:16:09;;;;;;;6.35;5.33;;;;;;;15.16;53.09;94711.27;830052;71;29421;-78
2021/05/10 21:31:10;;;;;;;5.60;5.00;;;;;;;15.17;52.79;94710.19;828744;71;29859;-78
2021/05/10 21:46:16;;;;;;;6.65;5.50;;;;;;;14.99;52.88;94700.91;827856;71;32748;-78
2021/05/10 22:01:09;;;;;;;5.28;4.87;;;;;;;14.77;52.51;94707.11;828609;71;30260;-79
2021/05/10 22:16:09;;;;;;;6.08;5.47;;;;;;;14.92;52.11;94695.33;835109;71;29923;-80
2021/05/10 22:31:14;;;;;;;5.28;4.87;;;;;;;14.96;51.66;94712.13;827848;71;33210;-81
2021/05/10 23:31:14;;;;;;;8.23;4.00;;;;;;;13.14;52.37;94693.03;827551;71;33092;-79
2021/05/10 23:46:15;;;;;;;5.90;4.92;;;;;;;13.19;53.00;94677.09;834164;71;32747;-78
